Time,TemperatureF,DewpointF,PressureIn,WindDirection,WindDirectionDegrees,WindSpeedMPH,WindSpeedGustMPH,Humidity,HourlyPrecipIn,Conditions,Clouds,dailyrainin,SoftwareType,DateUTC
2013-05-21 00:00:00,60.2,56.6,29.50,East,94,0.0,5.0,88,0.00,,,0.17,VWS V14.01,2013-05-21 05:00:00,
2013-05-21 00:05:00,60.0,56.4,29.51,East,94,0.0,0.0,88,0.00,,,0.00,VWS V14.01,2013-05-21 05:05:00,
2013-05-21 00:10:00,59.9,56.3,29.51,East,94,0.0,4.0,88,0.00,,,0.00,VWS V14.01,2013-05-21 05:10:00,
2013-05-21 00:15:00,59.8,55.9,29.51,East,94,0.0,4.0,87,0.00,,,0.00,VWS V14.01,2013-05-21 05:15:00,
2013-05-21 00:20:00,59.7,55.8,29.51,East,94,2.0,4.0,87,0.00,,,0.00,VWS V14.01,2013-05-21 05:20:00,
2013-05-21 00:25:00,59.5,55.6,29.51,East,93,0.0,4.0,87,0.00,,,0.00,VWS V14.01,2013-05-21 05:25:00,
2013-05-21 00:30:00,59.3,55.4,29.50,East,89,0.0,5.0,87,0.00,,,0.00,VWS V14.01,2013-05-21 05:30:00,
2013-05-21 00:35:00,59.2,55.3,29.50,East,90,5.0,6.0,87,0.00,,,0.00,VWS V14.01,2013-05-21 05:35:00,
2013-05-21 00:40:00,59.1,55.2,29.50,East,91,0.0,6.0,87,0.00,,,0.00,VWS V14.01,2013-05-21 05:40:00,
2013-05-21 00:45:00,59.0,55.1,29.51,East,92,0.0,6.0,87,0.01,,,0.01,VWS V14.01,2013-05-21 05:45:00,
2013-05-21 00:50:00,58.9,55.0,29.51,East,91,0.0,6.0,87,0.01,,,0.01,VWS V14.01,2013-05-21 05:50:00,
2013-05-21 00:55:00,58.9,55.0,29.50,East,92,0.0,6.0,87,0.01,,,0.01,VWS V14.01,2013-05-21 05:55:00,
2013-05-21 01:00:00,58.7,54.8,29.50,East,92,0.0,6.0,87,0.01,,,0.01,VWS V14.01,2013-05-21 06:00:00,
2013-05-21 01:05:00,58.7,54.8,29.50,East,92,0.0,3.0,87,0.01,,,0.01,VWS V14.01,2013-05-21 06:05:00,
2013-05-21 01:10:00,58.6,54.8,29.49,East,92,0.0,3.0,87,0.01,,,0.01,VWS V14.01,2013-05-21 06:10:00,
2013-05-21 01:15:00,58.5,54.7,29.50,East,92,0.0,4.0,87,0.01,,,0.01,VWS V14.01,2013-05-21 06:15:00,
2013-05-21 01:20:00,58.4,54.5,29.50,East,92,0.0,4.0,87,0.01,,,0.01,VWS V14.01,2013-05-21 06:20:00,
2013-05-21 01:25:00,58.4,54.5,29.50,East,92,0.0,4.0,87,0.01,,,0.01,VWS V14.01,2013-05-21 06:25:00,
2013-05-21 01:30:00,58.3,54.8,29.50,East,92,0.0,4.0,88,0.01,,,0.01,VWS V14.01,2013-05-21 06:30:00,
2013-05-21 01:31:00,58.3,54.8,29.50,East,92,0.0,4.0,88,0.01,,,0.01,VWS V14.01,2013-05-21 06:31:00,
2013-05-21 01:36:00,58.3,54.8,29.49,East,92,0.0,0.0,88,0.01,,,0.01,VWS V14.01,2013-05-21 06:36:00,
2013-05-21 01:41:00,58.2,54.7,29.49,East,92,0.0,3.0,88,0.01,,,0.01,VWS V14.01,2013-05-21 06:41:00,
2013-05-21 01:46:00,58.2,54.7,29.49,East,92,0.0,3.0,88,0.01,,,0.01,VWS V14.01,2013-05-21 06:46:00,
2013-05-21 01:51:00,58.2,54.7,29.49,East,90,3.0,4.0,88,0.01,,,0.01,VWS V14.01,2013-05-21 06:51:00,
2013-05-21 01:56:00,58.1,54.6,29.48,East,90,0.0,4.0,88,0.01,,,0.01,VWS V14.01,2013-05-21 06:56:00,
2013-05-21 02:00:00,58.1,54.9,29.48,East,90,0.0,4.0,89,0.01,,,0.01,VWS V14.01,2013-05-21 07:00:00,
2013-05-21 02:01:00,58.1,54.9,29.48,East,90,0.0,0.0,89,0.00,,,0.01,VWS V14.01,2013-05-21 07:01:00,
2013-05-21 02:06:00,58.2,55.0,29.48,East,90,0.0,2.0,89,0.00,,,0.01,VWS V14.01,2013-05-21 07:06:00,
2013-05-21 02:11:00,58.1,54.9,29.48,East,90,0.0,4.0,89,0.00,,,0.01,VWS V14.01,2013-05-21 07:11:00,
2013-05-21 02:16:00,58.1,54.9,29.48,NNE,19,0.0,5.0,89,0.00,,,0.01,VWS V14.01,2013-05-21 07:16:00,
2013-05-21 02:21:00,58.1,54.9,29.49,NNE,18,0.0,5.0,89,0.00,,,0.01,VWS V14.01,2013-05-21 07:21:00,
2013-05-21 02:26:00,57.9,54.4,29.49,NNE,19,0.0,5.0,88,0.00,,,0.01,VWS V14.01,2013-05-21 07:26:00,
2013-05-21 02:30:00,57.8,54.3,29.49,NNE,18,0.0,5.0,88,0.00,,,0.01,VWS V14.01,2013-05-21 07:30:00,
2013-05-21 02:31:00,57.8,54.6,29.49,NNE,19,3.0,3.0,89,0.00,,,0.01,VWS V14.01,2013-05-21 07:31:00,
2013-05-21 02:36:00,57.8,54.6,29.49,NNE,25,0.0,4.0,89,0.00,,,0.01,VWS V14.01,2013-05-21 07:36:00,
2013-05-21 02:41:00,57.8,54.6,29.49,North,11,2.0,5.0,89,0.00,,,0.01,VWS V14.01,2013-05-21 07:41:00,
2013-05-21 02:46:00,57.8,54.6,29.49,NNE,31,0.0,6.0,89,0.00,,,0.01,VWS V14.01,2013-05-21 07:46:00,
2013-05-21 02:51:00,57.8,54.6,29.49,NNE,30,0.0,6.0,89,0.00,,,0.01,VWS V14.01,2013-05-21 07:51:00,
2013-05-21 02:56:00,57.7,54.5,29.49,NNE,33,0.0,6.0,89,0.00,,,0.01,VWS V14.01,2013-05-21 07:56:00,
2013-05-21 03:00:00,57.8,54.6,29.48,ENE,75,0.0,6.0,89,0.00,,,0.01,VWS V14.01,2013-05-21 08:00:00,
2013-05-21 03:01:00,57.8,54.6,29.48,ENE,75,0.0,0.0,89,0.00,,,0.01,VWS V14.01,2013-05-21 08:01:00,
2013-05-21 03:06:00,57.7,54.5,29.48,NE,52,1.0,5.0,89,0.00,,,0.01,VWS V14.01,2013-05-21 08:06:00,
2013-05-21 03:11:00,57.8,54.9,29.48,NNE,33,0.0,5.0,90,0.00,,,0.01,VWS V14.01,2013-05-21 08:11:00,
2013-05-21 03:16:00,57.8,54.9,29.48,NNE,27,2.0,7.0,90,0.00,,,0.01,VWS V14.01,2013-05-21 08:16:00,
2013-05-21 03:21:00,57.8,54.9,29.48,NNE,29,1.0,7.0,90,0.00,,,0.01,VWS V14.01,2013-05-21 08:21:00,
2013-05-21 03:26:00,57.8,54.9,29.48,NE,38,0.0,7.0,90,0.00,,,0.01,VWS V14.01,2013-05-21 08:26:00,
2013-05-21 03:30:00,57.8,54.9,29.48,ENE,65,2.0,7.0,90,0.00,,,0.01,VWS V14.01,2013-05-21 08:30:00,
2013-05-21 03:31:00,57.8,54.9,29.48,ENE,65,0.0,2.0,90,0.00,,,0.01,VWS V14.01,2013-05-21 08:31:00,
2013-05-21 03:36:00,57.8,54.9,29.48,NE,55,0.0,5.0,90,0.00,,,0.01,VWS V14.01,2013-05-21 08:36:00,
2013-05-21 03:42:00,57.8,54.9,29.48,NE,50,1.0,5.0,90,0.00,,,0.01,VWS V14.01,2013-05-21 08:42:00,
2013-05-21 03:47:00,58.0,54.8,29.48,NE,43,3.0,5.0,89,0.00,,,0.01,VWS V14.01,2013-05-21 08:47:00,
2013-05-21 03:52:00,58.1,54.9,29.48,ENE,62,3.0,6.0,89,0.00,,,0.01,VWS V14.01,2013-05-21 08:52:00,
2013-05-21 03:57:00,58.2,55.0,29.48,NNE,25,0.0,7.0,89,0.00,,,0.01,VWS V14.01,2013-05-21 08:57:00,
2013-05-21 04:00:00,58.3,55.1,29.49,NNE,29,3.0,7.0,89,0.00,,,0.01,VWS V14.01,2013-05-21 09:00:00,
2013-05-21 04:02:00,58.3,55.1,29.49,NNE,29,0.0,3.0,89,0.00,,,0.01,VWS V14.01,2013-05-21 09:02:00,
2013-05-21 04:07:00,58.4,55.2,29.49,NNE,25,0.0,5.0,89,0.00,,,0.01,VWS V14.01,2013-05-21 09:07:00,
2013-05-21 04:12:00,58.6,55.4,29.48,NNE,32,3.0,8.0,89,0.00,,,0.01,VWS V14.01,2013-05-21 09:12:00,
2013-05-21 04:17:00,58.7,55.5,29.48,NNE,25,0.0,9.0,89,0.00,,,0.01,VWS V14.01,2013-05-21 09:17:00,
2013-05-21 04:22:00,58.7,55.5,29.48,NE,41,5.0,9.0,89,0.00,,,0.01,VWS V14.01,2013-05-21 09:22:00,
2013-05-21 04:27:00,58.8,55.6,29.48,NE,50,3.0,9.0,89,0.00,,,0.01,VWS V14.01,2013-05-21 09:27:00,
2013-05-21 04:30:00,58.8,55.6,29.49,NE,47,1.0,9.0,89,0.00,,,0.01,VWS V14.01,2013-05-21 09:30:00,
2013-05-21 04:32:00,58.8,55.6,29.49,NE,49,3.0,4.0,89,0.00,,,0.01,VWS V14.01,2013-05-21 09:32:00,
2013-05-21 04:37:00,58.8,55.6,29.48,NE,46,4.0,6.0,89,0.00,,,0.01,VWS V14.01,2013-05-21 09:37:00,
2013-05-21 04:42:00,58.9,55.7,29.49,ENE,70,3.0,7.0,89,0.00,,,0.01,VWS V14.01,2013-05-21 09:42:00,
2013-05-21 04:47:00,59.0,55.8,29.48,North,11,0.0,7.0,89,0.00,,,0.01,VWS V14.01,2013-05-21 09:47:00,
2013-05-21 04:52:00,59.0,55.8,29.48,NE,55,1.0,7.0,89,0.00,,,0.01,VWS V14.01,2013-05-21 09:52:00,
2013-05-21 04:57:00,59.0,55.8,29.49,NE,55,0.0,7.0,89,0.00,,,0.01,VWS V14.01,2013-05-21 09:57:00,
2013-05-21 05:00:00,59.0,55.8,29.49,NE,37,0.0,7.0,89,0.00,,,0.01,VWS V14.01,2013-05-21 10:00:00,
2013-05-21 05:02:00,59.0,55.8,29.49,NE,43,2.0,3.0,89,0.00,,,0.01,VWS V14.01,2013-05-21 10:02:00,
2013-05-21 05:07:00,58.9,55.7,29.49,NE,51,0.0,5.0,89,0.00,,,0.01,VWS V14.01,2013-05-21 10:07:00,
2013-05-21 05:12:00,58.9,55.7,29.48,NNE,33,0.0,5.0,89,0.00,,,0.01,VWS V14.01,2013-05-21 10:12:00,
2013-05-21 05:17:00,58.9,55.7,29.48,NE,35,0.0,7.0,89,0.00,,,0.01,VWS V14.01,2013-05-21 10:17:00,
2013-05-21 05:22:00,58.8,55.6,29.48,NNE,18,7.0,7.0,89,0.00,,,0.01,VWS V14.01,2013-05-21 10:22:00,
2013-05-21 05:27:00,58.9,55.7,29.49,NE,35,4.0,8.0,89,0.00,,,0.01,VWS V14.01,2013-05-21 10:27:00,
2013-05-21 05:30:00,58.9,55.7,29.49,NE,40,0.0,8.0,89,0.00,,,0.01,VWS V14.01,2013-05-21 10:30:00,
2013-05-21 05:32:00,58.9,55.7,29.49,NNE,33,3.0,7.0,89,0.00,,,0.01,VWS V14.01,2013-05-21 10:32:00,
2013-05-21 05:37:00,58.9,55.7,29.49,NE,42,5.0,9.0,89,0.00,,,0.01,VWS V14.01,2013-05-21 10:37:00,
2013-05-21 05:42:00,59.0,55.8,29.49,NE,35,3.0,9.0,89,0.00,,,0.01,VWS V14.01,2013-05-21 10:42:00,
2013-05-21 05:47:00,59.0,55.8,29.49,ENE,60,1.0,9.0,89,0.00,,,0.01,VWS V14.01,2013-05-21 10:47:00,
2013-05-21 05:52:00,59.0,55.8,29.49,NE,50,1.0,9.0,89,0.00,,,0.01,VWS V14.01,2013-05-21 10:52:00,
2013-05-21 05:58:00,59.0,55.8,29.50,East,86,4.0,9.0,89,0.00,,,0.01,VWS V14.01,2013-05-21 10:58:00,
2013-05-21 06:00:00,59.0,55.8,29.50,ENE,75,0.0,9.0,89,0.00,,,0.01,VWS V14.01,2013-05-21 11:00:00,
2013-05-21 06:03:00,59.0,55.8,29.50,ENE,77,2.0,2.0,89,0.00,,,0.01,VWS V14.01,2013-05-21 11:03:00,
2013-05-21 06:08:00,59.1,55.9,29.50,ENE,69,3.0,5.0,89,0.00,,,0.01,VWS V14.01,2013-05-21 11:08:00,
2013-05-21 06:13:00,59.1,55.9,29.50,NE,40,5.0,6.0,89,0.00,,,0.01,VWS V14.01,2013-05-21 11:13:00,
2013-05-21 06:18:00,59.1,55.9,29.50,NE,49,3.0,9.0,89,0.00,,,0.01,VWS V14.01,2013-05-21 11:18:00,
2013-05-21 06:23:00,59.1,55.9,29.50,NE,56,4.0,9.0,89,0.00,,,0.01,VWS V14.01,2013-05-21 11:23:00,
2013-05-21 06:28:00,59.2,56.0,29.50,ENE,57,0.0,9.0,89,0.00,,,0.01,VWS V14.01,2013-05-21 11:28:00,
2013-05-21 06:30:00,59.2,56.0,29.50,NNE,24,2.0,9.0,89,0.00,,,0.01,VWS V14.01,2013-05-21 11:30:00,
2013-05-21 06:33:00,59.2,56.0,29.50,ENE,66,0.0,6.0,89,0.00,,,0.01,VWS V14.01,2013-05-21 11:33:00,
2013-05-21 06:38:00,59.3,56.1,29.50,NE,53,4.0,6.0,89,0.00,,,0.01,VWS V14.01,2013-05-21 11:38:00,
2013-05-21 06:43:00,59.3,56.1,29.50,NE,56,0.0,6.0,89,0.00,,,0.01,VWS V14.01,2013-05-21 11:43:00,
2013-05-21 06:48:00,59.3,56.1,29.50,ENE,62,2.0,6.0,89,0.00,,,0.01,VWS V14.01,2013-05-21 11:48:00,
2013-05-21 06:53:00,59.3,56.1,29.50,NE,40,0.0,6.0,89,0.00,,,0.01,VWS V14.01,2013-05-21 11:53:00,
2013-05-21 06:58:00,59.3,56.1,29.50,NE,38,4.0,6.0,89,0.00,,,0.01,VWS V14.01,2013-05-21 11:58:00,
2013-05-21 07:00:00,59.4,56.2,29.50,NE,48,1.0,6.0,89,0.00,,,0.01,VWS V14.01,2013-05-21 12:00:00,
2013-05-21 07:03:00,59.4,56.2,29.50,NE,47,0.0,1.0,89,0.00,,,0.01,VWS V14.01,2013-05-21 12:03:00,
2013-05-21 07:08:00,59.1,55.9,29.50,North,360,7.0,7.0,89,0.00,,,0.01,VWS V14.01,2013-05-21 12:08:00,
2013-05-21 07:13:00,58.7,55.5,29.50,North,2,6.0,7.0,89,0.00,,,0.01,VWS V14.01,2013-05-21 12:13:00,
2013-05-21 07:18:00,58.5,55.3,29.50,North,360,5.0,10.0,89,0.00,,,0.01,VWS V14.01,2013-05-21 12:18:00,
2013-05-21 07:23:00,58.2,55.0,29.50,NNE,24,3.0,10.0,89,0.00,,,0.01,VWS V14.01,2013-05-21 12:23:00,
2013-05-21 07:28:00,58.1,54.9,29.50,NNE,15,7.0,11.0,89,0.00,,,0.01,VWS V14.01,2013-05-21 12:28:00,
2013-05-21 07:30:00,58.0,54.8,29.50,NNE,24,4.0,11.0,89,0.00,,,0.01,VWS V14.01,2013-05-21 12:30:00,
2013-05-21 07:33:00,57.9,54.7,29.50,NNE,17,5.0,6.0,89,0.00,,,0.01,VWS V14.01,2013-05-21 12:33:00,
2013-05-21 07:38:00,57.7,54.5,29.51,NNE,19,0.0,9.0,89,0.00,,,0.01,VWS V14.01,2013-05-21 12:38:00,
2013-05-21 07:43:00,57.7,54.8,29.51,NNE,18,3.0,9.0,90,0.00,,,0.01,VWS V14.01,2013-05-21 12:43:00,
2013-05-21 07:48:00,57.5,54.3,29.51,NNE,25,0.0,9.0,89,0.00,,,0.01,VWS V14.01,2013-05-21 12:48:00,
2013-05-21 07:54:00,57.2,54.0,29.51,NNE,33,4.0,10.0,89,0.00,,,0.01,VWS V14.01,2013-05-21 12:54:00,
2013-05-21 07:59:00,57.0,53.8,29.51,North,6,2.0,10.0,89,0.00,,,0.01,VWS V14.01,2013-05-21 12:59:00,
2013-05-21 08:00:00,56.9,53.7,29.51,North,10,6.0,10.0,89,0.00,,,0.01,VWS V14.01,2013-05-21 13:00:00,
2013-05-21 08:04:00,56.8,53.6,29.50,North,4,3.0,9.0,89,0.00,,,0.01,VWS V14.01,2013-05-21 13:04:00,
2013-05-21 08:09:00,56.5,53.3,29.51,NNE,20,3.0,10.0,89,0.00,,,0.01,VWS V14.01,2013-05-21 13:09:00,
2013-05-21 08:14:00,56.3,53.1,29.51,NNE,14,3.0,10.0,89,0.00,,,0.01,VWS V14.01,2013-05-21 13:14:00,
2013-05-21 08:19:00,56.2,53.0,29.51,North,8,5.0,10.0,89,0.00,,,0.01,VWS V14.01,2013-05-21 13:19:00,
2013-05-21 08:24:00,56.0,52.8,29.51,NNE,15,4.0,11.0,89,0.00,,,0.01,VWS V14.01,2013-05-21 13:24:00,
2013-05-21 08:29:00,56.0,52.8,29.51,NNE,15,5.0,11.0,89,0.00,,,0.01,VWS V14.01,2013-05-21 13:29:00,
2013-05-21 08:30:00,56.0,52.8,29.51,NNE,19,0.0,11.0,89,0.00,,,0.01,VWS V14.01,2013-05-21 13:30:00,
2013-05-21 08:34:00,56.1,52.9,29.51,NNE,33,0.0,7.0,89,0.00,,,0.01,VWS V14.01,2013-05-21 13:34:00,
2013-05-21 08:39:00,56.1,53.8,29.51,North,10,3.0,11.0,92,0.00,,,0.01,VWS V14.01,2013-05-21 13:39:00,
2013-05-21 08:44:00,56.2,53.3,29.51,NNE,24,2.0,11.0,90,0.00,,,0.01,VWS V14.01,2013-05-21 13:44:00,
2013-05-21 08:49:00,56.0,52.8,29.51,NNE,22,4.0,11.0,89,0.00,,,0.01,VWS V14.01,2013-05-21 13:49:00,
2013-05-21 08:54:00,55.8,52.6,29.51,North,4,6.0,11.0,89,0.00,,,0.01,VWS V14.01,2013-05-21 13:54:00,
2013-05-21 08:59:00,55.7,52.5,29.52,North,11,4.0,11.0,89,0.00,,,0.01,VWS V14.01,2013-05-21 13:59:00,
2013-05-21 09:04:00,55.7,52.5,29.52,NNE,26,1.0,7.0,89,0.00,,,0.01,VWS V14.01,2013-05-21 14:04:00,
2013-05-21 09:09:00,55.7,52.5,29.52,NNE,18,2.0,7.0,89,0.00,,,0.01,VWS V14.01,2013-05-21 14:09:00,
2013-05-21 09:14:00,55.7,52.5,29.52,NNE,29,2.0,9.0,89,0.00,,,0.01,VWS V14.01,2013-05-21 14:14:00,
2013-05-21 09:19:00,55.5,52.3,29.52,NNE,12,3.0,11.0,89,0.00,,,0.01,VWS V14.01,2013-05-21 14:19:00,
2013-05-21 09:24:00,55.4,52.2,29.53,NNE,17,3.0,11.0,89,0.00,,,0.01,VWS V14.01,2013-05-21 14:24:00,
2013-05-21 09:30:00,55.5,52.3,29.53,North,1,2.0,11.0,89,0.00,,,0.01,VWS V14.01,2013-05-21 14:30:00,
2013-05-21 09:35:00,55.5,52.6,29.53,North,6,5.0,7.0,90,0.00,,,0.01,VWS V14.01,2013-05-21 14:35:00,
2013-05-21 09:40:00,55.5,52.6,29.53,North,9,9.0,12.0,90,0.00,,,0.01,VWS V14.01,2013-05-21 14:40:00,
2013-05-21 09:45:00,55.6,52.7,29.53,NNE,33,2.0,12.0,90,0.00,,,0.01,VWS V14.01,2013-05-21 14:45:00,
2013-05-21 09:50:00,55.7,52.8,29.53,NNE,12,4.0,12.0,90,0.00,,,0.01,VWS V14.01,2013-05-21 14:50:00,
2013-05-21 09:55:00,55.6,52.4,29.53,North,3,9.0,12.0,89,0.00,,,0.01,VWS V14.01,2013-05-21 14:55:00,
2013-05-21 10:00:00,55.4,52.2,29.53,NNE,21,4.0,12.0,89,0.00,,,0.01,VWS V14.01,2013-05-21 15:00:00,
2013-05-21 10:05:00,55.3,52.1,29.54,NNE,12,3.0,10.0,89,0.00,,,0.01,VWS V14.01,2013-05-21 15:05:00,
2013-05-21 10:10:00,55.3,52.1,29.54,North,4,4.0,10.0,89,0.00,,,0.01,VWS V14.01,2013-05-21 15:10:00,
2013-05-21 10:15:00,55.3,52.1,29.54,North,356,9.0,10.0,89,0.00,,,0.01,VWS V14.01,2013-05-21 15:15:00,
2013-05-21 10:20:00,55.2,52.0,29.54,NNE,27,7.0,12.0,89,0.00,,,0.01,VWS V14.01,2013-05-21 15:20:00,
2013-05-21 10:25:00,55.2,52.0,29.54,NNE,13,0.0,12.0,89,0.00,,,0.01,VWS V14.01,2013-05-21 15:25:00,
2013-05-21 10:30:00,55.3,52.1,29.54,North,11,2.0,12.0,89,0.00,,,0.01,VWS V14.01,2013-05-21 15:30:00,
2013-05-21 10:35:00,55.1,51.6,29.54,NNE,24,0.0,11.0,88,0.00,,,0.01,VWS V14.01,2013-05-21 15:35:00,
2013-05-21 10:40:00,54.9,51.4,29.54,North,359,4.0,11.0,88,0.00,,,0.01,VWS V14.01,2013-05-21 15:40:00,
2013-05-21 10:45:00,54.8,51.3,29.54,North,4,4.0,11.0,88,0.00,,,0.01,VWS V14.01,2013-05-21 15:45:00,
2013-05-21 10:50:00,54.7,51.2,29.54,NNE,23,5.0,11.0,88,0.00,,,0.01,VWS V14.01,2013-05-21 15:50:00,
2013-05-21 10:55:00,54.7,51.2,29.55,NNE,19,5.0,11.0,88,0.00,,,0.01,VWS V14.01,2013-05-21 15:55:00,
2013-05-21 11:00:00,54.7,51.5,29.55,North,11,4.0,11.0,89,0.00,,,0.01,VWS V14.01,2013-05-21 16:00:00,
2013-05-21 11:05:00,54.7,51.5,29.55,NNW,341,4.0,8.0,89,0.00,,,0.01,VWS V14.01,2013-05-21 16:05:00,
2013-05-21 11:10:00,54.7,51.5,29.55,NE,46,6.0,12.0,89,0.00,,,0.01,VWS V14.01,2013-05-21 16:10:00,
2013-05-21 11:15:00,54.6,51.4,29.55,NNE,25,5.0,12.0,89,0.00,,,0.01,VWS V14.01,2013-05-21 16:15:00,
2013-05-21 11:21:00,54.5,51.3,29.55,NNE,33,5.0,12.0,89,0.00,,,0.01,VWS V14.01,2013-05-21 16:21:00,
2013-05-21 11:26:00,54.5,51.3,29.55,North,8,3.0,12.0,89,0.00,,,0.01,VWS V14.01,2013-05-21 16:26:00,
2013-05-21 11:31:00,54.4,51.2,29.55,NNE,23,5.0,12.0,89,0.00,,,0.01,VWS V14.01,2013-05-21 16:31:00,
2013-05-21 11:36:00,54.2,51.0,29.56,NNE,14,3.0,6.0,89,0.01,,,0.02,VWS V14.01,2013-05-21 16:36:00,
2013-05-21 11:41:00,54.1,50.9,29.56,NE,46,0.0,6.0,89,0.01,,,0.02,VWS V14.01,2013-05-21 16:41:00,
2013-05-21 11:46:00,54.1,50.9,29.56,NNE,14,5.0,10.0,89,0.01,,,0.02,VWS V14.01,2013-05-21 16:46:00,
2013-05-21 11:51:00,54.0,50.8,29.56,North,11,0.0,10.0,89,0.01,,,0.02,VWS V14.01,2013-05-21 16:51:00,
2013-05-21 11:56:00,54.0,50.8,29.56,North,8,4.0,10.0,89,0.01,,,0.02,VWS V14.01,2013-05-21 16:56:00,
2013-05-21 12:01:00,54.0,51.1,29.56,NNE,20,2.0,4.0,90,0.02,,,0.03,VWS V14.01,2013-05-21 17:01:00,
2013-05-21 12:06:00,53.9,51.0,29.56,North,1,6.0,10.0,90,0.02,,,0.03,VWS V14.01,2013-05-21 17:06:00,
2013-05-21 12:11:00,53.8,50.9,29.57,NNE,17,4.0,10.0,90,0.02,,,0.03,VWS V14.01,2013-05-21 17:11:00,
2013-05-21 12:16:00,53.7,50.8,29.57,NNE,17,3.0,10.0,90,0.02,,,0.03,VWS V14.01,2013-05-21 17:16:00,
2013-05-21 12:21:00,53.8,50.9,29.57,NNE,13,4.0,10.0,90,0.02,,,0.03,VWS V14.01,2013-05-21 17:21:00,
2013-05-21 12:26:00,53.8,50.9,29.57,NNE,21,3.0,10.0,90,0.02,,,0.03,VWS V14.01,2013-05-21 17:26:00,
2013-05-21 12:30:00,53.8,50.9,29.57,North,2,5.0,10.0,90,0.02,,,0.03,VWS V15.00,2013-05-21 17:30:00,
2013-05-21 12:31:00,53.8,50.9,29.57,North,4,2.0,5.0,90,0.02,,,0.03,VWS V14.01,2013-05-21 17:31:00,
2013-05-21 12:36:00,53.8,50.9,29.57,North,7,6.0,9.0,90,0.02,,,0.03,VWS V14.01,2013-05-21 17:36:00,
2013-05-21 12:41:00,53.7,50.8,29.58,North,352,3.0,9.0,90,0.02,,,0.03,VWS V14.01,2013-05-21 17:41:00,
2013-05-21 12:46:00,53.7,50.8,29.58,NNE,17,5.0,9.0,90,0.02,,,0.03,VWS V14.01,2013-05-21 17:46:00,
2013-05-21 12:51:00,53.8,50.9,29.58,NNE,27,4.0,9.0,90,0.02,,,0.03,VWS V14.01,2013-05-21 17:51:00,
2013-05-21 12:57:00,53.9,51.0,29.58,NNW,333,1.0,9.0,90,0.03,,,0.04,VWS V14.01,2013-05-21 17:57:00,
2013-05-21 13:02:00,53.9,51.0,29.58,NNW,331,4.0,7.0,90,0.01,,,0.04,VWS V14.01,2013-05-21 18:02:00,
2013-05-21 13:07:00,53.9,51.0,29.58,NNE,14,0.0,8.0,90,0.01,,,0.04,VWS V14.01,2013-05-21 18:07:00,
2013-05-21 13:12:00,54.0,51.1,29.58,NNE,14,2.0,8.0,90,0.01,,,0.04,VWS V14.01,2013-05-21 18:12:00,
2013-05-21 13:17:00,53.8,50.9,29.58,North,8,7.0,10.0,90,0.01,,,0.04,VWS V14.01,2013-05-21 18:17:00,
2013-05-21 13:22:00,53.6,50.7,29.58,NNE,29,7.0,10.0,90,0.01,,,0.04,VWS V14.01,2013-05-21 18:22:00,
2013-05-21 13:27:00,53.6,50.7,29.58,NNE,20,2.0,10.0,90,0.01,,,0.04,VWS V14.01,2013-05-21 18:27:00,
2013-05-21 13:32:00,53.6,50.7,29.58,NNE,22,5.0,5.0,90,0.01,,,0.04,VWS V14.01,2013-05-21 18:32:00,
2013-05-21 13:37:00,53.4,50.5,29.59,NNE,13,1.0,10.0,90,0.01,,,0.04,VWS V14.01,2013-05-21 18:37:00,
2013-05-21 13:42:00,53.4,50.5,29.59,NNE,19,2.0,12.0,90,0.01,,,0.04,VWS V14.01,2013-05-21 18:42:00,
2013-05-21 13:47:00,53.3,50.2,29.59,North,6,5.0,12.0,89,0.01,,,0.04,VWS V14.01,2013-05-21 18:47:00,
2013-05-21 13:52:00,53.2,50.0,29.59,North,3,0.0,12.0,89,0.01,,,0.04,VWS V14.01,2013-05-21 18:52:00,
2013-05-21 13:57:00,53.3,50.2,29.59,North,359,5.0,12.0,89,0.01,,,0.04,VWS V14.01,2013-05-21 18:57:00,
2013-05-21 14:02:00,53.3,50.2,29.59,NNE,13,0.0,4.0,89,0.00,,,0.04,VWS V14.01,2013-05-21 19:02:00,
2013-05-21 14:07:00,53.5,50.6,29.59,NNE,25,5.0,11.0,90,0.00,,,0.04,VWS V14.01,2013-05-21 19:07:00,
2013-05-21 14:12:00,53.6,50.7,29.59,NNE,13,3.0,11.0,90,0.00,,,0.04,VWS V14.01,2013-05-21 19:12:00,
2013-05-21 14:17:00,53.7,50.8,29.59,North,5,3.0,11.0,90,0.00,,,0.04,VWS V14.01,2013-05-21 19:17:00,
2013-05-21 14:22:00,53.7,50.8,29.59,North,6,2.0,11.0,90,0.00,,,0.04,VWS V14.01,2013-05-21 19:22:00,
2013-05-21 14:27:00,53.8,50.6,29.59,NNE,31,3.0,11.0,89,0.00,,,0.04,VWS V14.01,2013-05-21 19:27:00,
2013-05-21 14:32:00,53.9,50.7,29.59,NNE,21,4.0,7.0,89,0.00,,,0.04,VWS V14.01,2013-05-21 19:32:00,
2013-05-21 14:37:00,53.9,50.7,29.59,North,358,4.0,10.0,89,0.00,,,0.04,VWS V14.01,2013-05-21 19:37:00,
2013-05-21 14:43:00,53.8,50.6,29.60,North,356,2.0,13.0,89,0.00,,,0.04,VWS V14.01,2013-05-21 19:43:00,
2013-05-21 14:48:00,54.0,50.8,29.60,NNE,23,7.0,13.0,89,0.00,,,0.04,VWS V14.01,2013-05-21 19:48:00,
2013-05-21 14:53:00,54.3,51.1,29.60,North,4,0.0,13.0,89,0.00,,,0.04,VWS V14.01,2013-05-21 19:53:00,
2013-05-21 14:58:00,54.8,51.6,29.60,North,3,9.0,13.0,89,0.00,,,0.04,VWS V14.01,2013-05-21 19:58:00,
2013-05-21 15:00:00,54.8,51.6,29.60,North,9,6.0,13.0,89,0.00,,,0.04,VWS V15.00,2013-05-21 20:00:00,
2013-05-21 15:03:00,54.8,51.3,29.60,North,6,5.0,9.0,88,0.00,,,0.04,VWS V14.01,2013-05-21 20:03:00,
2013-05-21 15:08:00,54.8,51.3,29.60,NNW,333,9.0,10.0,88,0.00,,,0.04,VWS V14.01,2013-05-21 20:08:00,
2013-05-21 15:13:00,54.8,51.3,29.60,North,4,5.0,13.0,88,0.00,,,0.04,VWS V14.01,2013-05-21 20:13:00,
2013-05-21 15:18:00,54.9,51.4,29.60,NNE,29,2.0,13.0,88,0.00,,,0.04,VWS V14.01,2013-05-21 20:18:00,
2013-05-21 15:23:00,54.8,51.0,29.61,NNE,14,6.0,13.0,87,0.00,,,0.04,VWS V14.01,2013-05-21 20:23:00,
2013-05-21 15:28:00,55.0,51.5,29.61,NNW,346,5.0,13.0,88,0.00,,,0.04,VWS V14.01,2013-05-21 20:28:00,
2013-05-21 15:30:00,55.1,51.6,29.61,NNW,339,6.0,13.0,88,0.00,,,0.04,VWS V15.00,2013-05-21 20:30:00,
2013-05-21 15:33:00,55.1,51.6,29.61,North,5,10.0,13.0,88,0.00,,,0.04,VWS V14.01,2013-05-21 20:33:00,
2013-05-21 15:38:00,55.0,51.2,29.60,North,2,4.0,13.0,87,0.00,,,0.04,VWS V14.01,2013-05-21 20:38:00,
2013-05-21 15:43:00,55.2,51.4,29.61,NNE,25,5.0,13.0,87,0.00,,,0.04,VWS V14.01,2013-05-21 20:43:00,
2013-05-21 15:48:00,55.2,51.4,29.61,NNE,19,5.0,13.0,87,0.00,,,0.04,VWS V14.01,2013-05-21 20:48:00,
2013-05-21 15:53:00,55.2,51.1,29.62,NE,34,4.0,13.0,86,0.00,,,0.04,VWS V14.01,2013-05-21 20:53:00,
2013-05-21 15:58:00,55.1,51.0,29.62,NNE,23,5.0,13.0,86,0.00,,,0.04,VWS V14.01,2013-05-21 20:58:00,
2013-05-21 16:04:00,55.0,50.9,29.62,NNE,25,4.0,7.0,86,0.00,,,0.04,VWS V14.01,2013-05-21 21:04:00,
2013-05-21 16:09:00,54.9,50.8,29.62,North,357,4.0,7.0,86,0.00,,,0.04,VWS V14.01,2013-05-21 21:09:00,
2013-05-21 16:14:00,54.8,51.0,29.62,NNW,339,5.0,7.0,87,0.00,,,0.04,VWS V14.01,2013-05-21 21:14:00,
2013-05-21 16:19:00,54.8,51.0,29.63,NNE,19,5.0,7.0,87,0.00,,,0.04,VWS V14.01,2013-05-21 21:19:00,
2013-05-21 16:24:00,54.8,51.0,29.63,North,1,0.0,7.0,87,0.00,,,0.04,VWS V14.01,2013-05-21 21:24:00,
2013-05-21 16:29:00,54.7,50.9,29.63,NNE,16,6.0,7.0,87,0.00,,,0.04,VWS V14.01,2013-05-21 21:29:00,
2013-05-21 16:34:00,54.6,50.8,29.63,NNE,13,0.0,4.0,87,0.00,,,0.04,VWS V14.01,2013-05-21 21:34:00,
2013-05-21 16:39:00,54.5,51.0,29.63,North,352,3.0,6.0,88,0.00,,,0.04,VWS V14.01,2013-05-21 21:39:00,
2013-05-21 16:44:00,54.4,50.9,29.64,NNE,19,0.0,7.0,88,0.00,,,0.04,VWS V14.01,2013-05-21 21:44:00,
2013-05-21 16:49:00,54.4,50.9,29.64,NNE,15,3.0,7.0,88,0.00,,,0.04,VWS V14.01,2013-05-21 21:49:00,
2013-05-21 16:54:00,54.3,50.8,29.64,North,357,0.0,7.0,88,0.00,,,0.04,VWS V14.01,2013-05-21 21:54:00,
2013-05-21 16:59:00,54.4,51.2,29.64,NNE,25,4.0,7.0,89,0.00,,,0.04,VWS V14.01,2013-05-21 21:59:00,
2013-05-21 17:00:00,54.4,51.2,29.64,NNE,17,8.0,9.0,89,0.00,,,0.04,VWS V15.00,2013-05-21 22:00:00,
2013-05-21 17:04:00,54.3,51.1,29.64,NNW,341,0.0,8.0,89,0.01,,,0.05,VWS V14.01,2013-05-21 22:04:00,
2013-05-21 17:09:00,54.3,51.1,29.64,NNW,343,7.0,8.0,89,0.01,,,0.05,VWS V14.01,2013-05-21 22:09:00,
2013-05-21 17:14:00,54.4,51.2,29.64,NNE,15,2.0,12.0,89,0.01,,,0.05,VWS V14.01,2013-05-21 22:14:00,
2013-05-21 17:19:00,54.5,51.3,29.64,NNW,340,2.0,12.0,89,0.01,,,0.05,VWS V14.01,2013-05-21 22:19:00,
2013-05-21 17:24:00,54.4,51.2,29.64,NNW,339,0.0,12.0,89,0.01,,,0.05,VWS V14.01,2013-05-21 22:24:00,
2013-05-21 17:29:00,54.4,51.2,29.64,North,355,0.0,12.0,89,0.01,,,0.05,VWS V14.01,2013-05-21 22:29:00,
2013-05-21 17:34:00,54.3,51.1,29.65,North,356,9.0,9.0,89,0.01,,,0.05,VWS V14.01,2013-05-21 22:34:00,
2013-05-21 17:39:00,54.0,50.8,29.64,NNE,12,0.0,11.0,89,0.01,,,0.05,VWS V14.01,2013-05-21 22:39:00,
2013-05-21 17:44:00,53.9,50.7,29.64,NNE,21,5.0,11.0,89,0.01,,,0.05,VWS V14.01,2013-05-21 22:44:00,
2013-05-21 17:49:00,53.8,50.6,29.64,North,1,3.0,11.0,89,0.01,,,0.05,VWS V14.01,2013-05-21 22:49:00,
2013-05-21 17:54:00,53.6,50.1,29.64,NNE,13,0.0,13.0,88,0.01,,,0.05,VWS V14.01,2013-05-21 22:54:00,
2013-05-21 17:59:00,53.6,50.1,29.64,North,351,0.0,13.0,88,0.01,,,0.05,VWS V14.01,2013-05-21 22:59:00,
2013-05-21 18:05:00,53.6,50.1,29.64,NNE,16,6.0,9.0,88,0.01,,,0.05,VWS V14.01,2013-05-21 23:05:00,
2013-05-21 18:10:00,53.5,50.0,29.64,NNW,336,5.0,9.0,88,0.01,,,0.05,VWS V14.01,2013-05-21 23:10:00,
2013-05-21 18:15:00,53.5,50.0,29.64,North,4,9.0,9.0,88,0.01,,,0.05,VWS V14.01,2013-05-21 23:15:00,
2013-05-21 18:20:00,53.3,49.8,29.64,North,358,9.0,11.0,88,0.01,,,0.05,VWS V14.01,2013-05-21 23:20:00,
2013-05-21 18:25:00,53.1,49.7,29.64,North,7,8.0,11.0,88,0.01,,,0.05,VWS V14.01,2013-05-21 23:25:00,
2013-05-21 18:30:00,53.1,49.7,29.65,NNW,332,3.0,11.0,88,0.01,,,0.05,VWS V14.01,2013-05-21 23:30:00,
2013-05-21 18:35:00,53.0,49.5,29.65,North,349,9.0,10.0,88,0.00,,,0.05,VWS V14.01,2013-05-21 23:35:00,
2013-05-21 18:40:00,52.9,49.5,29.65,North,4,4.0,10.0,88,0.00,,,0.05,VWS V14.01,2013-05-21 23:40:00,
2013-05-21 18:45:00,52.7,49.2,29.65,NNE,15,4.0,12.0,88,0.00,,,0.05,VWS V14.01,2013-05-21 23:45:00,
2013-05-21 18:50:00,52.4,49.0,29.65,NNW,348,6.0,12.0,88,0.00,,,0.05,VWS V14.01,2013-05-21 23:50:00,
2013-05-21 18:55:00,52.2,48.8,29.65,North,353,6.0,12.0,88,0.00,,,0.05,VWS V14.01,2013-05-21 23:55:00,
2013-05-21 19:00:00,52.1,48.7,29.65,NNW,347,5.0,12.0,88,0.00,,,0.05,VWS V14.01,2013-05-22 00:00:00,
2013-05-21 19:05:00,51.9,48.5,29.66,NNE,23,6.0,13.0,88,0.00,,,0.05,VWS V14.01,2013-05-22 00:05:00,
2013-05-21 19:10:00,51.7,48.3,29.66,North,5,6.0,13.0,88,0.00,,,0.05,VWS V14.01,2013-05-22 00:10:00,
2013-05-21 19:15:00,51.7,48.3,29.66,NNE,24,4.0,13.0,88,0.00,,,0.05,VWS V14.01,2013-05-22 00:15:00,
2013-05-21 19:20:00,51.5,48.1,29.66,NNE,23,5.0,14.0,88,0.00,,,0.05,VWS V14.01,2013-05-22 00:20:00,
2013-05-21 19:25:00,51.4,48.0,29.66,North,11,6.0,14.0,88,0.00,,,0.05,VWS V14.01,2013-05-22 00:25:00,
2013-05-21 19:30:00,51.4,48.0,29.66,NNE,21,3.0,14.0,88,0.00,,,0.05,VWS V14.01,2013-05-22 00:30:00,
2013-05-21 19:35:00,51.2,47.8,29.66,NNE,22,5.0,13.0,88,0.00,,,0.05,VWS V14.01,2013-05-22 00:35:00,
2013-05-21 19:40:00,51.1,47.7,29.66,North,349,8.0,13.0,88,0.00,,,0.05,VWS V14.01,2013-05-22 00:40:00,
2013-05-21 19:45:00,51.1,47.7,29.66,NNE,13,5.0,13.0,88,0.00,,,0.05,VWS V14.01,2013-05-22 00:45:00,
2013-05-21 19:50:00,51.0,47.6,29.67,NNW,333,9.0,13.0,88,0.00,,,0.05,VWS V14.01,2013-05-22 00:50:00,
2013-05-21 19:55:00,51.0,47.9,29.67,NNE,14,5.0,13.0,89,0.00,,,0.05,VWS V14.01,2013-05-22 00:55:00,
2013-05-21 20:00:00,51.0,47.9,29.67,NNE,31,3.0,13.0,89,0.00,,,0.05,VWS V14.01,2013-05-22 01:00:00,
2013-05-21 20:06:00,51.1,47.7,29.68,NNE,13,5.0,11.0,88,0.00,,,0.05,VWS V14.01,2013-05-22 01:06:00,
2013-05-21 20:11:00,51.1,47.7,29.67,NNE,26,6.0,11.0,88,0.00,,,0.05,VWS V14.01,2013-05-22 01:11:00,
2013-05-21 20:16:00,51.0,47.6,29.68,NNE,21,0.0,11.0,88,0.00,,,0.05,VWS V14.01,2013-05-22 01:16:00,
2013-05-21 20:21:00,51.0,47.6,29.68,NNE,25,0.0,11.0,88,0.00,,,0.05,VWS V14.01,2013-05-22 01:21:00,
2013-05-21 20:26:00,51.0,47.9,29.68,North,11,2.0,11.0,89,0.00,,,0.05,VWS V14.01,2013-05-22 01:26:00,
2013-05-21 20:31:00,50.9,47.8,29.68,NNE,14,6.0,11.0,89,0.01,,,0.06,VWS V14.01,2013-05-22 01:31:00,
2013-05-21 20:36:00,50.7,47.6,29.68,North,8,7.0,10.0,89,0.01,,,0.06,VWS V14.01,2013-05-22 01:36:00,
2013-05-21 20:41:00,50.5,47.4,29.68,NNE,25,4.0,12.0,89,0.02,,,0.07,VWS V14.01,2013-05-22 01:41:00,
2013-05-21 20:46:00,50.4,47.3,29.68,North,6,1.0,12.0,89,0.02,,,0.07,VWS V14.01,2013-05-22 01:46:00,
2013-05-21 20:51:00,50.3,47.2,29.68,North,349,2.0,12.0,89,0.02,,,0.07,VWS V14.01,2013-05-22 01:51:00,
2013-05-21 20:56:00,50.2,47.1,29.69,North,11,8.0,12.0,89,0.02,,,0.07,VWS V14.01,2013-05-22 01:56:00,
2013-05-21 21:00:00,50.1,47.3,29.69,NNW,343,3.0,12.0,90,0.02,,,0.07,VWS V15.00,2013-05-22 02:00:00,
2013-05-21 21:01:00,50.1,47.3,29.69,NNW,343,3.0,4.0,90,0.02,,,0.07,VWS V14.01,2013-05-22 02:01:00,
2013-05-21 21:06:00,50.1,47.3,29.68,North,3,2.0,11.0,90,0.03,,,0.08,VWS V14.01,2013-05-22 02:06:00,
2013-05-21 21:11:00,50.1,47.3,29.69,North,353,4.0,11.0,90,0.03,,,0.08,VWS V14.01,2013-05-22 02:11:00,
2013-05-21 21:16:00,50.1,47.3,29.69,North,349,6.0,11.0,90,0.03,,,0.08,VWS V14.01,2013-05-22 02:16:00,
2013-05-21 21:21:00,50.0,47.2,29.69,North,354,1.0,11.0,90,0.03,,,0.08,VWS V14.01,2013-05-22 02:21:00,
2013-05-21 21:26:00,49.8,47.0,29.69,NNW,339,11.0,12.0,90,0.03,,,0.08,VWS V14.01,2013-05-22 02:26:00,
2013-05-21 21:31:00,49.6,46.8,29.70,North,356,7.0,7.0,90,0.02,,,0.08,VWS V14.01,2013-05-22 02:31:00,
2013-05-21 21:36:00,49.5,46.7,29.70,NNE,14,5.0,10.0,90,0.02,,,0.08,VWS V14.01,2013-05-22 02:36:00,
2013-05-21 21:41:00,49.4,46.6,29.70,North,4,6.0,10.0,90,0.02,,,0.08,VWS V14.01,2013-05-22 02:41:00,
2013-05-21 21:46:00,49.3,46.5,29.70,North,11,7.0,11.0,90,0.02,,,0.08,VWS V14.01,2013-05-22 02:46:00,
2013-05-21 21:52:00,49.2,46.4,29.70,NNW,335,5.0,11.0,90,0.02,,,0.08,VWS V14.01,2013-05-22 02:52:00,
2013-05-21 21:57:00,49.2,46.4,29.70,North,6,10.0,12.0,90,0.02,,,0.08,VWS V14.01,2013-05-22 02:57:00,
2013-05-21 22:02:00,49.1,46.3,29.70,North,352,8.0,10.0,90,0.01,,,0.08,VWS V14.01,2013-05-22 03:02:00,
2013-05-21 22:07:00,48.9,46.1,29.70,North,352,5.0,11.0,90,0.02,,,0.09,VWS V14.01,2013-05-22 03:07:00,
2013-05-21 22:12:00,48.8,46.0,29.71,NNE,19,4.0,13.0,90,0.02,,,0.09,VWS V14.01,2013-05-22 03:12:00,
2013-05-21 22:17:00,48.7,45.9,29.71,NNE,16,4.0,13.0,90,0.02,,,0.09,VWS V14.01,2013-05-22 03:17:00,
2013-05-21 22:22:00,48.7,45.9,29.71,North,358,5.0,13.0,90,0.02,,,0.09,VWS V14.01,2013-05-22 03:22:00,
2013-05-21 22:27:00,48.7,45.9,29.71,NNW,328,2.0,13.0,90,0.02,,,0.09,VWS V14.01,2013-05-22 03:27:00,
2013-05-21 22:30:00,48.7,45.9,29.71,North,350,0.0,13.0,90,0.02,,,0.09,VWS V15.00,2013-05-22 03:30:00,
2013-05-21 22:32:00,48.7,45.9,29.71,North,349,4.0,4.0,90,0.01,,,0.09,VWS V14.01,2013-05-22 03:32:00,
2013-05-21 22:37:00,48.6,45.8,29.71,North,1,5.0,8.0,90,0.01,,,0.09,VWS V14.01,2013-05-22 03:37:00,
2013-05-21 22:42:00,48.5,45.7,29.71,North,354,6.0,10.0,90,0.01,,,0.09,VWS V14.01,2013-05-22 03:42:00,
2013-05-21 22:47:00,48.3,45.5,29.70,North,360,6.0,13.0,90,0.01,,,0.09,VWS V14.01,2013-05-22 03:47:00,
2013-05-21 22:52:00,48.1,45.3,29.70,North,3,7.0,13.0,90,0.01,,,0.09,VWS V14.01,2013-05-22 03:52:00,
2013-05-21 22:57:00,48.0,45.2,29.70,NNW,335,6.0,13.0,90,0.01,,,0.09,VWS V14.01,2013-05-22 03:57:00,
2013-05-21 23:00:00,47.9,45.1,29.70,North,360,14.0,14.0,90,0.01,,,0.09,VWS V15.00,2013-05-22 04:00:00,
2013-05-21 23:01:00,47.9,45.1,29.69,North,1,6.0,13.0,90,0.01,,,0.09,VWS V14.01,2013-05-22 04:01:00,
2013-05-21 23:04:00,47.8,44.7,29.69,North,5,3.0,15.0,89,0.02,,,0.10,VWS V14.01,2013-05-22 04:04:00,
2013-05-21 23:06:00,47.8,44.7,29.70,North,352,6.0,15.0,89,0.02,,,0.10,VWS V14.01,2013-05-22 04:06:00,
2013-05-21 23:10:00,47.7,44.6,29.69,North,3,6.0,15.0,89,0.02,,,0.10,VWS V14.01,2013-05-22 04:10:00,
2013-05-21 23:15:00,47.6,44.5,29.70,North,9,5.0,15.0,89,0.02,,,0.10,VWS V14.01,2013-05-22 04:15:00,
2013-05-21 23:20:00,47.5,44.4,29.70,North,349,4.0,15.0,89,0.02,,,0.10,VWS V14.01,2013-05-22 04:20:00,
2013-05-21 23:25:00,47.5,44.4,29.70,NW,323,2.0,15.0,89,0.02,,,0.10,VWS V14.01,2013-05-22 04:25:00,
2013-05-21 23:30:00,47.2,44.1,29.70,NNE,19,9.0,15.0,89,0.02,,,0.10,VWS V14.01,2013-05-22 04:30:00,
2013-05-21 23:35:00,47.0,43.9,29.70,NW,321,7.0,13.0,89,0.01,,,0.10,VWS V14.01,2013-05-22 04:35:00,
2013-05-21 23:40:00,46.8,43.7,29.70,NNW,337,5.0,13.0,89,0.01,,,0.10,VWS V14.01,2013-05-22 04:40:00,
2013-05-21 23:45:00,46.8,43.7,29.70,NNW,335,7.0,13.0,89,0.01,,,0.10,VWS V14.01,2013-05-22 04:45:00,
2013-05-21 23:50:00,46.7,43.6,29.71,North,4,9.0,13.0,89,0.01,,,0.10,VWS V14.01,2013-05-22 04:50:00,
2013-05-21 23:55:00,46.6,43.5,29.71,NNW,346,3.0,13.0,89,0.01,,,0.10,VWS V14.01,2013-05-22 04:55:00,